createdAt,value
2023-12-18T00:00:21.067Z,92.92
2023-12-18T00:02:48.474Z,92.92
2023-12-18T00:05:15.808Z,92.89
2023-12-18T00:07:43.835Z,92.85
2023-12-18T00:10:11.242Z,92.85
2023-12-18T00:12:39.567Z,92.80
2023-12-18T00:15:08.713Z,92.79
2023-12-18T00:17:36.523Z,92.86
2023-12-18T00:20:05.484Z,92.83
2023-12-18T00:22:33.154Z,92.83
2023-12-18T00:25:00.368Z,92.80
2023-12-18T00:27:28.255Z,92.78
2023-12-18T00:29:55.582Z,92.72
2023-12-18T00:32:22.847Z,92.72
2023-12-18T00:34:50.199Z,92.60
2023-12-18T00:37:17.571Z,92.56
2023-12-18T00:39:44.821Z,92.64
2023-12-18T00:42:12.204Z,92.61
2023-12-18T00:44:39.436Z,92.75
2023-12-18T00:47:06.900Z,92.69
2023-12-18T00:49:34.495Z,92.66
2023-12-18T00:52:01.937Z,92.58
2023-12-18T00:54:29.172Z,92.66
2023-12-18T00:56:56.506Z,92.62
2023-12-18T00:59:23.761Z,92.61
2023-12-18T01:01:51.028Z,92.56
2023-12-18T01:04:18.303Z,92.46
2023-12-18T01:06:45.897Z,92.47
2023-12-18T01:09:14.514Z,92.52
2023-12-18T01:11:41.749Z,92.61
2023-12-18T01:14:10.318Z,92.62
2023-12-18T01:16:37.630Z,92.56
2023-12-18T01:19:05.673Z,92.69
2023-12-18T01:21:33.046Z,92.75
2023-12-18T01:24:01.085Z,92.75
2023-12-18T01:26:28.268Z,92.70
2023-12-18T01:28:55.596Z,92.77
2023-12-18T01:31:24.146Z,92.75
2023-12-18T01:33:54.218Z,92.65
2023-12-18T01:36:22.307Z,92.63
2023-12-18T01:38:49.517Z,92.62
2023-12-18T01:41:17.807Z,92.51
2023-12-18T01:43:45.178Z,92.64
2023-12-18T01:46:18.889Z,92.53
2023-12-18T01:48:47.207Z,92.59
2023-12-18T01:51:14.985Z,92.51
2023-12-18T01:53:50.916Z,92.36
2023-12-18T01:56:22.590Z,92.37
2023-12-18T01:58:50.545Z,92.34
2023-12-18T02:01:17.998Z,92.20
2023-12-18T02:03:46.345Z,92.02
2023-12-18T02:06:15.572Z,91.93
2023-12-18T02:08:43.257Z,92.10
2023-12-18T02:11:10.692Z,92.20
2023-12-18T02:13:40.309Z,92.38
2023-12-18T02:16:08.047Z,92.27
2023-12-18T02:18:35.569Z,92.35
2023-12-18T02:21:03.103Z,92.29
2023-12-18T02:23:30.388Z,92.25
2023-12-18T02:25:57.547Z,92.19
2023-12-18T02:28:25.698Z,92.19
2023-12-18T02:30:53.240Z,92.21
2023-12-18T02:33:20.592Z,92.24
2023-12-18T02:35:47.884Z,92.14
2023-12-18T02:38:15.218Z,92.03
2023-12-18T02:40:44.082Z,91.92
2023-12-18T02:43:12.363Z,91.90
2023-12-18T02:45:39.697Z,91.95
2023-12-18T02:48:07.915Z,91.85
2023-12-18T02:50:35.170Z,91.91
2023-12-18T02:53:02.433Z,91.93
2023-12-18T02:55:29.735Z,91.97
2023-12-18T02:57:56.925Z,91.89
2023-12-18T03:00:24.243Z,91.62
2023-12-18T03:02:51.759Z,91.86
2023-12-18T03:05:19.186Z,91.67
2023-12-18T03:07:46.485Z,91.68
2023-12-18T03:10:16.500Z,91.67
2023-12-18T03:12:43.749Z,91.79
2023-12-18T03:15:11.132Z,91.34
2023-12-18T03:17:38.413Z,91.47
2023-12-18T03:20:06.782Z,91.34
2023-12-18T03:22:34.143Z,91.47
2023-12-18T03:25:01.441Z,91.38
2023-12-18T03:27:28.677Z,91.47
2023-12-18T03:29:55.931Z,91.56
2023-12-18T03:32:23.121Z,91.48
2023-12-18T03:34:50.313Z,91.29
2023-12-18T03:37:17.761Z,91.34
2023-12-18T03:39:45.046Z,91.31
2023-12-18T03:42:13.068Z,91.13
2023-12-18T03:44:40.429Z,91.13
2023-12-18T03:47:07.694Z,91.00
2023-12-18T03:49:35.031Z,91.23
2023-12-18T03:52:02.455Z,91.29
2023-12-18T03:54:29.866Z,91.37
2023-12-18T03:56:57.243Z,91.36
2023-12-18T03:59:24.427Z,91.44
2023-12-18T04:01:52.148Z,91.54
2023-12-18T04:04:19.465Z,91.47
2023-12-18T04:06:46.889Z,91.52
2023-12-18T04:09:14.254Z,91.50
2023-12-18T04:11:41.516Z,91.48
2023-12-18T04:14:08.690Z,91.44
2023-12-18T04:16:36.723Z,91.48
2023-12-18T04:19:06.424Z,91.54
2023-12-18T04:21:33.978Z,91.71
2023-12-18T04:24:01.452Z,91.77
2023-12-18T04:26:28.712Z,91.82
2023-12-18T04:28:55.966Z,91.85
2023-12-18T04:31:23.302Z,91.85
2023-12-18T04:33:50.622Z,91.87
2023-12-18T04:36:17.876Z,91.86
2023-12-18T04:38:47.435Z,91.89
2023-12-18T04:41:22.066Z,92.01
2023-12-18T04:43:50.247Z,91.92
2023-12-18T04:46:17.395Z,92.12
2023-12-18T04:48:45.400Z,92.12
2023-12-18T04:51:12.745Z,91.91
2023-12-18T04:53:41.698Z,92.00
2023-12-18T04:56:08.942Z,92.07
2023-12-18T04:58:37.385Z,92.07
2023-12-18T05:01:04.898Z,92.08
2023-12-18T05:03:32.410Z,92.05
2023-12-18T05:05:59.796Z,92.14
2023-12-18T05:08:27.162Z,92.14
2023-12-18T05:10:54.980Z,92.22
2023-12-18T05:13:22.790Z,92.24
2023-12-18T05:15:52.755Z,92.24
2023-12-18T05:18:20.245Z,92.43
2023-12-18T05:20:47.510Z,92.46
2023-12-18T05:23:14.711Z,92.46
2023-12-18T05:25:42.086Z,92.43
2023-12-18T05:28:09.320Z,92.40
2023-12-18T05:30:38.162Z,92.53
2023-12-18T05:33:05.993Z,92.51
2023-12-18T05:35:33.248Z,92.53
2023-12-18T05:38:00.430Z,92.46
2023-12-18T05:40:27.676Z,92.56
2023-12-18T05:42:55.035Z,92.56
2023-12-18T05:45:22.494Z,92.68
2023-12-18T05:47:49.776Z,92.56
2023-12-18T05:50:17.049Z,92.71
2023-12-18T05:52:44.658Z,92.68
2023-12-18T05:55:12.077Z,92.61
2023-12-18T05:57:39.843Z,92.67
2023-12-18T06:00:07.870Z,92.66
2023-12-18T06:02:35.196Z,92.66
2023-12-18T06:05:02.750Z,92.74
2023-12-18T06:07:30.475Z,92.82
2023-12-18T06:09:57.728Z,92.99
2023-12-18T06:12:25.125Z,93.01
2023-12-18T06:14:52.463Z,93.07
2023-12-18T06:17:19.807Z,92.94
2023-12-18T06:19:49.127Z,92.92
2023-12-18T06:22:16.485Z,93.07
2023-12-18T06:24:43.843Z,93.10
2023-12-18T06:27:11.447Z,93.13
2023-12-18T06:29:38.835Z,93.15
2023-12-18T06:32:06.777Z,93.05
2023-12-18T06:34:34.346Z,93.09
2023-12-18T06:37:01.681Z,93.11
2023-12-18T06:39:29.009Z,93.11
2023-12-18T06:41:57.166Z,93.08
2023-12-18T06:44:24.313Z,92.98
2023-12-18T06:46:51.663Z,92.94
2023-12-18T06:49:18.989Z,93.08
2023-12-18T06:51:46.215Z,93.04
2023-12-18T06:54:13.599Z,93.12
2023-12-18T06:56:40.779Z,93.23
2023-12-18T06:59:09.008Z,93.33
2023-12-18T07:01:37.296Z,93.34
2023-12-18T07:04:04.949Z,93.39
2023-12-18T07:06:33.717Z,93.30
2023-12-18T07:09:01.038Z,93.36
2023-12-18T07:11:28.514Z,93.31
2023-12-18T07:13:55.752Z,93.22
2023-12-18T07:16:23.869Z,93.04
2023-12-18T07:18:51.411Z,93.23
2023-12-18T07:21:18.795Z,93.35
2023-12-18T07:23:46.086Z,93.49
2023-12-18T07:26:16.006Z,93.40
2023-12-18T07:28:44.494Z,93.36
2023-12-18T07:31:11.843Z,93.56
2023-12-18T07:33:39.398Z,93.47
2023-12-18T07:36:07.098Z,93.45
2023-12-18T07:38:34.384Z,93.59
2023-12-18T07:41:04.453Z,93.65
2023-12-18T07:43:31.884Z,93.56
2023-12-18T07:45:59.219Z,93.56
2023-12-18T07:48:26.924Z,93.59
2023-12-18T07:50:54.365Z,93.64
2023-12-18T07:53:21.621Z,93.75
2023-12-18T07:55:49.479Z,93.67
2023-12-18T07:58:17.298Z,93.78
2023-12-18T08:00:44.494Z,93.85
2023-12-18T08:03:12.051Z,93.94
2023-12-18T08:05:39.271Z,93.88
2023-12-18T08:08:06.784Z,93.98
2023-12-18T08:10:34.014Z,94.11
2023-12-18T08:13:01.255Z,94.08
2023-12-18T08:15:28.558Z,94.01
2023-12-18T08:17:55.975Z,94.02
2023-12-18T08:20:23.239Z,94.11
2023-12-18T08:22:50.607Z,94.10
2023-12-18T08:25:17.976Z,93.93
2023-12-18T08:27:45.346Z,93.98
2023-12-18T08:30:13.213Z,94.01
2023-12-18T08:32:41.054Z,94.04
2023-12-18T08:35:08.912Z,94.04
2023-12-18T08:37:36.247Z,94.02
2023-12-18T08:40:03.788Z,94.01
2023-12-18T08:42:31.997Z,93.96
2023-12-18T08:44:59.338Z,93.88
2023-12-18T08:47:26.633Z,94.03
2023-12-18T08:49:54.041Z,94.11
2023-12-18T08:52:21.356Z,94.21
2023-12-18T08:54:48.600Z,94.14
2023-12-18T08:57:15.902Z,94.20
2023-12-18T08:59:43.198Z,94.19
2023-12-18T09:02:12.255Z,94.29
2023-12-18T09:04:39.614Z,94.27
2023-12-18T09:07:07.025Z,94.38
2023-12-18T09:09:34.359Z,94.35
2023-12-18T09:12:01.575Z,94.35
2023-12-18T09:14:28.760Z,94.40
2023-12-18T09:16:56.165Z,94.33
2023-12-18T09:19:23.427Z,94.35
2023-12-18T09:21:50.819Z,94.48
2023-12-18T09:24:18.288Z,94.50
2023-12-18T09:26:45.605Z,94.46
2023-12-18T09:29:12.793Z,94.46
2023-12-18T09:31:40.437Z,94.40
2023-12-18T09:34:08.076Z,94.36
2023-12-18T09:36:35.540Z,94.29
2023-12-18T09:39:03.069Z,94.29
2023-12-18T09:41:30.368Z,94.31
2023-12-18T09:43:57.799Z,94.38
2023-12-18T09:46:26.741Z,94.40
2023-12-18T09:48:55.182Z,94.55
2023-12-18T09:51:27.341Z,94.62
2023-12-18T09:53:55.186Z,94.61
2023-12-18T09:56:24.178Z,94.77
2023-12-18T09:58:55.459Z,94.75
2023-12-18T10:01:23.873Z,94.83
2023-12-18T10:03:51.327Z,94.82
2023-12-18T10:06:19.389Z,94.87
2023-12-18T10:08:46.722Z,94.85
2023-12-18T10:11:27.655Z,94.94
2023-12-18T10:13:56.673Z,94.96
2023-12-18T10:16:24.147Z,95.08
2023-12-18T10:18:54.019Z,95.04
2023-12-18T10:21:25.047Z,95.17
2023-12-18T10:23:56.448Z,95.12
2023-12-18T10:26:23.921Z,95.19
2023-12-18T10:28:54.156Z,95.13
2023-12-18T10:31:22.440Z,95.26
2023-12-18T10:33:50.569Z,95.17
2023-12-18T10:36:18.747Z,95.20
2023-12-18T10:38:57.891Z,95.28
2023-12-18T10:41:29.251Z,95.33
2023-12-18T10:43:57.937Z,95.34
2023-12-18T10:46:26.163Z,95.48
2023-12-18T10:48:54.714Z,95.37
2023-12-18T10:51:23.809Z,95.42
2023-12-18T10:53:54.776Z,95.41
2023-12-18T10:56:23.410Z,95.40
2023-12-18T10:58:51.793Z,95.44
2023-12-18T11:01:19.627Z,95.59
2023-12-18T11:03:47.825Z,95.60
2023-12-18T11:06:17.270Z,95.51
2023-12-18T11:08:45.389Z,95.50
2023-12-18T11:11:14.284Z,95.54
2023-12-18T11:14:09.180Z,95.56
2023-12-18T11:17:00.992Z,95.54
2023-12-18T11:19:59.203Z,95.56
2023-12-18T11:22:49.271Z,95.57
2023-12-18T11:25:18.364Z,95.49
2023-12-18T11:27:46.298Z,95.57
2023-12-18T11:30:33.288Z,95.56
2023-12-18T11:33:10.649Z,95.55
2023-12-18T11:35:40.406Z,95.54
2023-12-18T11:38:15.773Z,95.52
2023-12-18T11:40:44.509Z,95.65
2023-12-18T11:43:38.359Z,95.52
2023-12-18T11:46:17.647Z,95.59
2023-12-18T11:48:47.931Z,95.66
2023-12-18T11:51:17.211Z,95.64
2023-12-18T11:53:44.572Z,95.59
2023-12-18T11:56:13.360Z,95.54
2023-12-18T11:58:45.810Z,95.57
2023-12-18T12:01:14.252Z,95.57
2023-12-18T12:03:42.195Z,95.55
2023-12-18T12:06:10.088Z,95.59
2023-12-18T12:08:50.838Z,95.45
2023-12-18T12:11:19.701Z,95.63
2023-12-18T12:13:49.317Z,95.46
2023-12-18T12:16:19.839Z,95.47
2023-12-18T12:18:49.151Z,95.56
2023-12-18T12:21:17.924Z,95.42
2023-12-18T12:23:49.759Z,95.50
2023-12-18T12:26:22.480Z,95.53
2023-12-18T12:28:50.132Z,95.44
2023-12-18T12:31:19.742Z,95.36
2023-12-18T12:33:52.483Z,95.06
2023-12-18T12:36:22.975Z,95.28
2023-12-18T12:38:50.694Z,95.43
2023-12-18T12:41:18.355Z,95.47
2023-12-18T12:43:46.350Z,95.55
2023-12-18T12:46:17.531Z,95.09
2023-12-18T12:48:49.744Z,95.12
2023-12-18T12:51:17.188Z,95.19
2023-12-18T12:53:45.315Z,94.94
2023-12-18T12:56:12.797Z,94.86
2023-12-18T12:58:40.120Z,95.06
2023-12-18T13:01:08.834Z,95.06
2023-12-18T13:03:37.475Z,95.17
2023-12-18T13:06:05.346Z,95.36
2023-12-18T13:08:34.799Z,95.39
2023-12-18T13:11:06.503Z,95.14
2023-12-18T13:13:34.465Z,95.28
2023-12-18T13:16:01.897Z,95.07
2023-12-18T13:18:29.577Z,95.14
2023-12-18T13:20:57.158Z,95.02
2023-12-18T13:23:24.412Z,95.17
2023-12-18T13:25:51.786Z,95.39
2023-12-18T13:28:19.301Z,95.36
2023-12-18T13:30:46.596Z,95.43
2023-12-18T13:33:14.186Z,95.56
2023-12-18T13:35:41.575Z,96.03
2023-12-18T13:38:09.198Z,96.17
2023-12-18T13:40:36.513Z,96.07
2023-12-18T13:43:03.934Z,96.42
2023-12-18T13:45:31.348Z,96.43
2023-12-18T13:47:59.471Z,96.65
2023-12-18T13:50:27.952Z,96.50
2023-12-18T13:52:55.183Z,96.54
2023-12-18T13:55:23.420Z,96.39
2023-12-18T13:57:51.073Z,96.36
2023-12-18T14:00:21.243Z,96.17
2023-12-18T14:02:50.462Z,96.17
2023-12-18T14:05:18.468Z,96.06
2023-12-18T14:07:45.982Z,96.10
2023-12-18T14:10:13.383Z,95.81
2023-12-18T14:12:41.053Z,95.71
2023-12-18T14:15:09.182Z,95.78
2023-12-18T14:17:36.512Z,95.41
2023-12-18T14:20:06.274Z,95.42
2023-12-18T14:22:34.410Z,95.55
2023-12-18T14:25:03.777Z,95.36
2023-12-18T14:27:33.524Z,95.40
2023-12-18T14:30:01.322Z,94.99
2023-12-18T14:32:28.786Z,94.73
2023-12-18T14:34:56.429Z,94.40
2023-12-18T14:37:24.389Z,94.07
2023-12-18T14:39:52.030Z,93.91
2023-12-18T14:42:19.620Z,93.53
2023-12-18T14:44:46.903Z,93.80
2023-12-18T14:47:14.339Z,92.49
2023-12-18T14:49:42.159Z,92.52
2023-12-18T14:52:09.597Z,93.02
2023-12-18T14:54:36.922Z,92.69
2023-12-18T14:57:04.744Z,91.53
2023-12-18T14:59:32.066Z,90.60
2023-12-18T15:02:00.878Z,91.61
2023-12-18T15:04:30.507Z,91.67
2023-12-18T15:06:59.340Z,91.36
2023-12-18T15:09:29.844Z,90.95
2023-12-18T15:11:57.735Z,89.59
2023-12-18T15:14:24.937Z,90.50
2023-12-18T15:16:52.224Z,90.37
2023-12-18T15:19:19.587Z,89.63
2023-12-18T15:21:47.007Z,89.31
2023-12-18T15:24:14.441Z,89.46
2023-12-18T15:26:41.823Z,89.26
2023-12-18T15:29:09.650Z,89.89
2023-12-18T15:31:37.074Z,90.21
2023-12-18T15:34:06.838Z,90.14
2023-12-18T15:36:36.322Z,90.12
2023-12-18T15:39:04.022Z,90.15
2023-12-18T15:41:31.526Z,90.33
2023-12-18T15:43:58.854Z,90.52
2023-12-18T15:46:26.367Z,90.89
2023-12-18T15:48:54.495Z,90.54
2023-12-18T15:51:22.070Z,89.82
2023-12-18T15:53:49.402Z,89.89
2023-12-18T15:56:16.828Z,90.37
2023-12-18T15:58:44.241Z,90.57
2023-12-18T16:01:12.981Z,90.73
2023-12-18T16:03:40.974Z,90.59
2023-12-18T16:06:08.343Z,91.18
2023-12-18T16:08:35.751Z,90.96
2023-12-18T16:11:03.436Z,90.69
2023-12-18T16:13:30.889Z,90.73
2023-12-18T16:15:58.254Z,91.07
2023-12-18T16:18:25.876Z,90.82
2023-12-18T16:20:53.602Z,90.91
2023-12-18T16:23:20.868Z,90.95
2023-12-18T16:25:48.444Z,91.50
2023-12-18T16:28:15.685Z,91.47
2023-12-18T16:30:56.324Z,91.18
2023-12-18T16:33:25.704Z,91.32
2023-12-18T16:35:53.389Z,91.04
2023-12-18T16:38:21.104Z,90.66
2023-12-18T16:40:53.089Z,90.60
2023-12-18T16:43:21.511Z,90.12
2023-12-18T16:45:49.158Z,90.25
2023-12-18T16:48:17.081Z,90.43
2023-12-18T16:50:44.640Z,90.41
2023-12-18T16:53:11.915Z,90.30
2023-12-18T16:55:39.165Z,90.00
2023-12-18T16:58:08.449Z,89.76
2023-12-18T17:00:35.927Z,89.31
2023-12-18T17:03:06.975Z,88.83
2023-12-18T17:05:35.867Z,88.57
2023-12-18T17:08:04.255Z,88.72
2023-12-18T17:10:32.279Z,88.73
2023-12-18T17:12:59.740Z,88.47
2023-12-18T17:15:30.666Z,88.77
2023-12-18T17:17:58.580Z,88.99
2023-12-18T17:20:26.863Z,88.46
2023-12-18T17:22:54.134Z,88.24
2023-12-18T17:25:21.454Z,88.64
2023-12-18T17:27:48.916Z,88.05
2023-12-18T17:30:16.774Z,88.31
2023-12-18T17:32:45.005Z,88.08
2023-12-18T17:35:13.271Z,88.07
2023-12-18T17:37:40.555Z,88.18
2023-12-18T17:40:08.529Z,88.17
2023-12-18T17:42:36.080Z,87.23
2023-12-18T17:45:04.562Z,87.76
2023-12-18T17:47:33.941Z,87.96
2023-12-18T17:50:01.977Z,87.92
2023-12-18T17:52:29.412Z,87.87
2023-12-18T17:54:56.757Z,87.83
2023-12-18T17:57:24.113Z,87.41
2023-12-18T17:59:54.503Z,87.39
2023-12-18T18:02:23.797Z,86.99
2023-12-18T18:04:51.388Z,87.91
2023-12-18T18:07:18.776Z,87.35
2023-12-18T18:09:46.103Z,87.71
2023-12-18T18:12:13.985Z,87.91
2023-12-18T18:14:41.279Z,87.32
2023-12-18T18:17:08.579Z,87.83
2023-12-18T18:19:36.004Z,87.70
2023-12-18T18:22:04.823Z,88.16
2023-12-18T18:24:33.595Z,87.91
2023-12-18T18:27:08.924Z,87.63
2023-12-18T18:29:38.371Z,87.68
2023-12-18T18:32:06.899Z,87.65
2023-12-18T18:34:34.404Z,87.73
2023-12-18T18:37:01.818Z,87.46
2023-12-18T18:39:29.136Z,87.67
2023-12-18T18:41:56.357Z,87.47
2023-12-18T18:44:23.754Z,87.35
2023-12-18T18:46:51.302Z,87.60
2023-12-18T18:49:18.562Z,87.46
2023-12-18T18:51:46.001Z,86.95
2023-12-18T18:54:13.610Z,87.25
2023-12-18T18:56:40.938Z,87.15
2023-12-18T18:59:08.432Z,87.05
2023-12-18T19:01:38.407Z,87.24
2023-12-18T19:04:06.753Z,86.61
2023-12-18T19:06:34.863Z,86.83
2023-12-18T19:09:02.374Z,87.03
2023-12-18T19:11:29.622Z,86.57
2023-12-18T19:13:56.982Z,86.99
2023-12-18T19:16:24.264Z,86.69
2023-12-18T19:18:51.644Z,87.27
2023-12-18T19:21:19.069Z,86.90
2023-12-18T19:23:46.281Z,86.96
2023-12-18T19:26:13.540Z,86.68
2023-12-18T19:28:40.694Z,86.71
2023-12-18T19:31:08.106Z,86.99
2023-12-18T19:33:35.521Z,86.80
2023-12-18T19:36:08.698Z,86.72
2023-12-18T19:38:36.364Z,86.70
2023-12-18T19:41:03.669Z,86.60
2023-12-18T19:43:31.013Z,86.60
2023-12-18T19:45:58.401Z,86.03
2023-12-18T19:48:25.960Z,86.09
2023-12-18T19:50:53.199Z,85.55
2023-12-18T19:53:20.687Z,85.20
2023-12-18T19:55:47.925Z,85.23
2023-12-18T19:58:15.232Z,86.22
2023-12-18T20:00:42.571Z,86.69
2023-12-18T20:03:10.579Z,86.84
2023-12-18T20:05:37.821Z,87.13
2023-12-18T20:08:05.218Z,87.08
2023-12-18T20:10:32.443Z,87.46
2023-12-18T20:13:00.170Z,87.54
2023-12-18T20:15:27.515Z,87.61
2023-12-18T20:17:54.863Z,87.27
2023-12-18T20:20:22.133Z,87.35
2023-12-18T20:22:49.393Z,87.17
2023-12-18T20:25:17.403Z,87.27
2023-12-18T20:27:44.607Z,87.40
2023-12-18T20:30:12.093Z,87.57
2023-12-18T20:32:39.385Z,87.44
2023-12-18T20:35:08.055Z,87.86
2023-12-18T20:37:36.317Z,87.54
2023-12-18T20:40:03.990Z,87.67
2023-12-18T20:42:31.214Z,87.35
2023-12-18T20:44:58.803Z,87.73
2023-12-18T20:47:25.962Z,87.80
2023-12-18T20:49:53.486Z,87.35
2023-12-18T20:52:21.211Z,87.64
2023-12-18T20:54:48.680Z,87.70
2023-12-18T20:57:18.888Z,87.43
2023-12-18T20:59:46.469Z,87.71
2023-12-18T21:02:13.693Z,87.77
2023-12-18T21:04:41.012Z,87.54
2023-12-18T21:07:09.350Z,87.65
2023-12-18T21:09:36.697Z,87.70
2023-12-18T21:12:04.236Z,87.85
2023-12-18T21:14:35.288Z,87.79
2023-12-18T21:17:04.143Z,87.60
2023-12-18T21:19:31.611Z,87.63
2023-12-18T21:22:00.586Z,88.00
2023-12-18T21:24:29.652Z,87.70
2023-12-18T21:26:57.021Z,87.53
2023-12-18T21:29:24.283Z,87.79
2023-12-18T21:31:51.696Z,87.89
2023-12-18T21:34:19.124Z,87.97
2023-12-18T21:36:48.557Z,88.00
2023-12-18T21:39:17.363Z,87.67
2023-12-18T21:41:44.784Z,87.38
2023-12-18T21:44:15.344Z,87.88
2023-12-18T21:46:42.647Z,87.96
2023-12-18T21:49:10.005Z,87.72
2023-12-18T21:51:44.048Z,87.67
2023-12-18T21:54:11.757Z,87.57
2023-12-18T21:56:39.014Z,87.62
2023-12-18T21:59:06.381Z,87.31
2023-12-18T22:01:35.194Z,87.10
2023-12-18T22:04:05.810Z,86.72
2023-12-18T22:06:34.987Z,86.78
2023-12-18T22:09:05.335Z,86.38
2023-12-18T22:11:32.668Z,86.18
2023-12-18T22:13:59.880Z,85.80
2023-12-18T22:16:27.203Z,86.08
2023-12-18T22:18:54.798Z,85.21
2023-12-18T22:21:22.209Z,85.84
2023-12-18T22:23:49.464Z,84.93
2023-12-18T22:26:17.013Z,83.65
2023-12-18T22:28:44.361Z,84.45
2023-12-18T22:31:11.835Z,84.25
2023-12-18T22:33:39.907Z,84.18
2023-12-18T22:36:07.653Z,83.84
2023-12-18T22:38:34.880Z,82.94
2023-12-18T22:41:02.072Z,83.65
2023-12-18T22:43:29.278Z,83.02
2023-12-18T22:45:57.239Z,83.32
2023-12-18T22:48:24.676Z,83.34
2023-12-18T22:50:52.396Z,83.18
2023-12-18T22:53:21.983Z,82.18
2023-12-18T22:55:51.829Z,82.87
2023-12-18T22:58:19.182Z,82.81
2023-12-18T23:00:46.483Z,82.22
2023-12-18T23:03:13.755Z,82.46
2023-12-18T23:05:41.222Z,82.00
2023-12-18T23:08:08.410Z,82.88
2023-12-18T23:10:35.661Z,81.85
2023-12-18T23:13:03.196Z,81.49
2023-12-18T23:15:31.217Z,81.87
2023-12-18T23:17:59.114Z,81.19
2023-12-18T23:20:26.361Z,81.47
2023-12-18T23:22:53.663Z,81.14
2023-12-18T23:25:20.805Z,80.62
2023-12-18T23:27:48.019Z,80.78
2023-12-18T23:30:15.329Z,80.45
2023-12-18T23:32:42.976Z,80.87
2023-12-18T23:35:10.532Z,81.71
2023-12-18T23:37:38.607Z,80.94
2023-12-18T23:40:06.258Z,81.01
2023-12-18T23:42:33.523Z,81.01
2023-12-18T23:45:01.084Z,80.85
2023-12-18T23:47:28.980Z,80.57
2023-12-18T23:49:56.173Z,80.45
2023-12-18T23:52:23.414Z,80.52
2023-12-18T23:54:50.768Z,81.02
2023-12-18T23:57:18.106Z,80.47
2023-12-18T23:59:45.295Z,82.31
